sensor_id;sensor_type;location;lat;lon;timestamp;P1;durP1;ratioP1;P2;durP2;ratioP2
18023;SDS011;9137;50.960;3.118;2022-08-19T00:00:50;17.20;;;14.13;;
18023;SDS011;9137;50.960;3.118;2022-08-19T00:03:17;18.27;;;14.57;;
18023;SDS011;9137;50.960;3.118;2022-08-19T00:05:44;19.48;;;14.55;;
18023;SDS011;9137;50.960;3.118;2022-08-19T00:08:11;18.33;;;15.03;;
18023;SDS011;9137;50.960;3.118;2022-08-19T00:10:39;18.63;;;15.13;;
18023;SDS011;9137;50.960;3.118;2022-08-19T00:13:06;16.67;;;14.25;;
18023;SDS011;9137;50.960;3.118;2022-08-19T00:15:33;18.40;;;15.50;;
18023;SDS011;9137;50.960;3.118;2022-08-19T00:18:00;18.13;;;14.70;;
18023;SDS011;9137;50.960;3.118;2022-08-19T00:20:27;17.67;;;14.80;;
18023;SDS011;9137;50.960;3.118;2022-08-19T00:22:54;20.25;;;15.25;;
18023;SDS011;9137;50.960;3.118;2022-08-19T00:25:21;19.63;;;14.88;;
18023;SDS011;9137;50.960;3.118;2022-08-19T00:27:49;18.40;;;14.88;;
18023;SDS011;9137;50.960;3.118;2022-08-19T00:30:16;18.58;;;14.70;;
18023;SDS011;9137;50.960;3.118;2022-08-19T00:32:43;18.45;;;14.77;;
18023;SDS011;9137;50.960;3.118;2022-08-19T00:35:10;18.75;;;14.95;;
18023;SDS011;9137;50.960;3.118;2022-08-19T00:37:37;19.20;;;15.45;;
18023;SDS011;9137;50.960;3.118;2022-08-19T00:40:06;19.15;;;14.25;;
18023;SDS011;9137;50.960;3.118;2022-08-19T00:42:34;19.40;;;14.47;;
18023;SDS011;9137;50.960;3.118;2022-08-19T00:45:02;19.38;;;14.32;;
18023;SDS011;9137;50.960;3.118;2022-08-19T00:47:36;17.67;;;13.68;;
18023;SDS011;9137;50.960;3.118;2022-08-19T00:50:04;18.88;;;12.95;;
18023;SDS011;9137;50.960;3.118;2022-08-19T00:52:35;18.13;;;13.80;;
18023;SDS011;9137;50.960;3.118;2022-08-19T00:55:07;19.38;;;14.85;;
18023;SDS011;9137;50.960;3.118;2022-08-19T00:57:37;15.48;;;13.10;;
18023;SDS011;9137;50.960;3.118;2022-08-19T01:00:10;18.45;;;13.02;;
18023;SDS011;9137;50.960;3.118;2022-08-19T01:02:39;18.15;;;13.27;;
18023;SDS011;9137;50.960;3.118;2022-08-19T01:05:08;19.38;;;14.00;;
18023;SDS011;9137;50.960;3.118;2022-08-19T01:07:37;19.33;;;13.77;;
18023;SDS011;9137;50.960;3.118;2022-08-19T01:10:07;17.98;;;13.35;;
18023;SDS011;9137;50.960;3.118;2022-08-19T01:12:35;16.13;;;12.32;;
18023;SDS011;9137;50.960;3.118;2022-08-19T01:15:03;17.80;;;13.82;;
18023;SDS011;9137;50.960;3.118;2022-08-19T01:17:33;16.85;;;13.20;;
18023;SDS011;9137;50.960;3.118;2022-08-19T01:20:02;19.05;;;13.52;;
18023;SDS011;9137;50.960;3.118;2022-08-19T01:22:31;16.17;;;12.87;;
18023;SDS011;9137;50.960;3.118;2022-08-19T01:25:05;16.65;;;12.65;;
18023;SDS011;9137;50.960;3.118;2022-08-19T01:27:36;18.83;;;12.80;;
18023;SDS011;9137;50.960;3.118;2022-08-19T01:30:05;16.48;;;12.02;;
18023;SDS011;9137;50.960;3.118;2022-08-19T01:32:33;16.15;;;12.95;;
18023;SDS011;9137;50.960;3.118;2022-08-19T01:35:01;16.90;;;13.18;;
18023;SDS011;9137;50.960;3.118;2022-08-19T01:37:29;15.38;;;13.02;;
18023;SDS011;9137;50.960;3.118;2022-08-19T01:39:58;16.83;;;12.65;;
18023;SDS011;9137;50.960;3.118;2022-08-19T01:42:25;16.77;;;12.20;;
18023;SDS011;9137;50.960;3.118;2022-08-19T01:44:52;16.73;;;12.73;;
18023;SDS011;9137;50.960;3.118;2022-08-19T01:47:18;14.73;;;12.75;;
18023;SDS011;9137;50.960;3.118;2022-08-19T01:49:45;14.32;;;11.88;;
18023;SDS011;9137;50.960;3.118;2022-08-19T01:52:12;15.68;;;12.00;;
18023;SDS011;9137;50.960;3.118;2022-08-19T01:54:39;15.52;;;11.18;;
18023;SDS011;9137;50.960;3.118;2022-08-19T01:57:08;15.32;;;11.25;;
18023;SDS011;9137;50.960;3.118;2022-08-19T01:59:38;15.33;;;11.67;;
18023;SDS011;9137;50.960;3.118;2022-08-19T02:02:06;14.75;;;11.52;;
18023;SDS011;9137;50.960;3.118;2022-08-19T02:04:33;15.07;;;11.13;;
18023;SDS011;9137;50.960;3.118;2022-08-19T02:07:02;15.20;;;11.77;;
18023;SDS011;9137;50.960;3.118;2022-08-19T02:09:30;14.85;;;11.65;;
18023;SDS011;9137;50.960;3.118;2022-08-19T02:11:57;13.40;;;10.68;;
18023;SDS011;9137;50.960;3.118;2022-08-19T02:14:25;12.55;;;10.52;;
18023;SDS011;9137;50.960;3.118;2022-08-19T02:16:52;12.82;;;10.63;;
18023;SDS011;9137;50.960;3.118;2022-08-19T02:19:19;13.50;;;10.90;;
18023;SDS011;9137;50.960;3.118;2022-08-19T02:21:46;12.70;;;10.55;;
18023;SDS011;9137;50.960;3.118;2022-08-19T02:24:13;14.35;;;11.00;;
18023;SDS011;9137;50.960;3.118;2022-08-19T02:26:40;12.65;;;10.40;;
18023;SDS011;9137;50.960;3.118;2022-08-19T02:29:07;12.93;;;10.32;;
18023;SDS011;9137;50.960;3.118;2022-08-19T02:31:35;14.38;;;11.52;;
18023;SDS011;9137;50.960;3.118;2022-08-19T02:34:02;13.85;;;10.00;;
18023;SDS011;9137;50.960;3.118;2022-08-19T02:36:29;14.70;;;10.10;;
18023;SDS011;9137;50.960;3.118;2022-08-19T02:38:56;13.35;;;10.40;;
18023;SDS011;9137;50.960;3.118;2022-08-19T02:41:23;11.93;;;10.23;;
18023;SDS011;9137;50.960;3.118;2022-08-19T02:43:51;12.88;;;10.48;;
18023;SDS011;9137;50.960;3.118;2022-08-19T02:46:19;14.18;;;10.18;;
18023;SDS011;9137;50.960;3.118;2022-08-19T02:48:49;13.80;;;10.00;;
18023;SDS011;9137;50.960;3.118;2022-08-19T02:51:18;13.30;;;9.73;;
18023;SDS011;9137;50.960;3.118;2022-08-19T02:53:46;11.05;;;9.93;;
18023;SDS011;9137;50.960;3.118;2022-08-19T02:56:14;13.35;;;9.80;;
18023;SDS011;9137;50.960;3.118;2022-08-19T02:58:41;13.07;;;9.90;;
18023;SDS011;9137;50.960;3.118;2022-08-19T03:01:09;12.87;;;9.27;;
18023;SDS011;9137;50.960;3.118;2022-08-19T03:03:37;13.98;;;9.07;;
18023;SDS011;9137;50.960;3.118;2022-08-19T03:06:07;12.32;;;9.63;;
18023;SDS011;9137;50.960;3.118;2022-08-19T03:08:36;10.73;;;8.23;;
18023;SDS011;9137;50.960;3.118;2022-08-19T03:11:03;12.15;;;8.77;;
18023;SDS011;9137;50.960;3.118;2022-08-19T03:13:30;12.10;;;8.95;;
18023;SDS011;9137;50.960;3.118;2022-08-19T03:15:57;11.77;;;8.70;;
18023;SDS011;9137;50.960;3.118;2022-08-19T03:18:24;11.68;;;8.27;;
18023;SDS011;9137;50.960;3.118;2022-08-19T03:20:52;10.43;;;8.13;;
18023;SDS011;9137;50.960;3.118;2022-08-19T03:23:21;12.77;;;9.57;;
18023;SDS011;9137;50.960;3.118;2022-08-19T03:25:49;10.33;;;8.57;;
18023;SDS011;9137;50.960;3.118;2022-08-19T03:28:19;11.57;;;8.20;;
18023;SDS011;9137;50.960;3.118;2022-08-19T03:30:56;10.82;;;8.38;;
18023;SDS011;9137;50.960;3.118;2022-08-19T03:33:24;11.95;;;8.48;;
18023;SDS011;9137;50.960;3.118;2022-08-19T03:36:03;15.45;;;9.68;;
18023;SDS011;9137;50.960;3.118;2022-08-19T03:38:34;10.68;;;8.32;;
18023;SDS011;9137;50.960;3.118;2022-08-19T03:41:02;12.23;;;7.70;;
18023;SDS011;9137;50.960;3.118;2022-08-19T03:43:33;13.07;;;7.88;;
18023;SDS011;9137;50.960;3.118;2022-08-19T03:46:01;10.90;;;8.02;;
18023;SDS011;9137;50.960;3.118;2022-08-19T03:48:30;10.63;;;7.03;;
18023;SDS011;9137;50.960;3.118;2022-08-19T03:50:57;10.43;;;7.40;;
18023;SDS011;9137;50.960;3.118;2022-08-19T03:53:28;14.40;;;8.20;;
18023;SDS011;9137;50.960;3.118;2022-08-19T03:55:58;9.98;;;7.03;;
18023;SDS011;9137;50.960;3.118;2022-08-19T03:58:26;9.45;;;7.10;;
18023;SDS011;9137;50.960;3.118;2022-08-19T04:00:54;10.10;;;7.55;;
18023;SDS011;9137;50.960;3.118;2022-08-19T04:03:21;10.48;;;7.40;;
18023;SDS011;9137;50.960;3.118;2022-08-19T04:05:48;9.52;;;7.40;;
18023;SDS011;9137;50.960;3.118;2022-08-19T04:08:15;11.93;;;7.40;;
18023;SDS011;9137;50.960;3.118;2022-08-19T04:10:44;11.30;;;7.00;;
18023;SDS011;9137;50.960;3.118;2022-08-19T04:13:12;10.13;;;7.53;;
18023;SDS011;9137;50.960;3.118;2022-08-19T04:15:40;12.48;;;7.30;;
18023;SDS011;9137;50.960;3.118;2022-08-19T04:18:08;8.95;;;6.68;;
18023;SDS011;9137;50.960;3.118;2022-08-19T04:20:39;10.27;;;6.73;;
18023;SDS011;9137;50.960;3.118;2022-08-19T04:23:12;11.43;;;7.15;;
18023;SDS011;9137;50.960;3.118;2022-08-19T04:25:41;11.30;;;7.13;;
18023;SDS011;9137;50.960;3.118;2022-08-19T04:28:10;14.10;;;6.97;;
18023;SDS011;9137;50.960;3.118;2022-08-19T04:30:41;11.70;;;6.63;;
18023;SDS011;9137;50.960;3.118;2022-08-19T04:33:10;8.82;;;6.47;;
18023;SDS011;9137;50.960;3.118;2022-08-19T04:35:41;12.53;;;6.77;;
18023;SDS011;9137;50.960;3.118;2022-08-19T04:38:10;12.98;;;6.88;;
18023;SDS011;9137;50.960;3.118;2022-08-19T04:40:39;10.23;;;6.93;;
18023;SDS011;9137;50.960;3.118;2022-08-19T04:43:24;11.82;;;7.30;;
18023;SDS011;9137;50.960;3.118;2022-08-19T04:45:53;9.82;;;6.80;;
18023;SDS011;9137;50.960;3.118;2022-08-19T04:48:20;13.47;;;6.60;;
18023;SDS011;9137;50.960;3.118;2022-08-19T04:50:51;8.77;;;6.43;;
18023;SDS011;9137;50.960;3.118;2022-08-19T04:53:21;10.65;;;6.97;;
18023;SDS011;9137;50.960;3.118;2022-08-19T04:55:48;10.75;;;7.18;;
18023;SDS011;9137;50.960;3.118;2022-08-19T04:58:16;12.05;;;7.07;;
18023;SDS011;9137;50.960;3.118;2022-08-19T05:00:43;8.80;;;6.78;;
18023;SDS011;9137;50.960;3.118;2022-08-19T05:03:11;11.45;;;6.72;;
18023;SDS011;9137;50.960;3.118;2022-08-19T05:05:42;11.18;;;6.80;;
18023;SDS011;9137;50.960;3.118;2022-08-19T05:08:10;11.38;;;7.20;;
18023;SDS011;9137;50.960;3.118;2022-08-19T05:10:37;9.95;;;6.45;;
18023;SDS011;9137;50.960;3.118;2022-08-19T05:13:05;13.90;;;6.50;;
18023;SDS011;9137;50.960;3.118;2022-08-19T05:15:35;12.20;;;7.10;;
18023;SDS011;9137;50.960;3.118;2022-08-19T05:18:02;10.97;;;7.20;;
18023;SDS011;9137;50.960;3.118;2022-08-19T05:20:48;11.02;;;6.85;;
18023;SDS011;9137;50.960;3.118;2022-08-19T05:23:34;11.93;;;6.57;;
18023;SDS011;9137;50.960;3.118;2022-08-19T05:26:01;10.95;;;7.43;;
18023;SDS011;9137;50.960;3.118;2022-08-19T05:28:29;8.95;;;6.75;;
18023;SDS011;9137;50.960;3.118;2022-08-19T05:30:56;12.15;;;7.15;;
18023;SDS011;9137;50.960;3.118;2022-08-19T05:33:22;9.30;;;7.38;;
18023;SDS011;9137;50.960;3.118;2022-08-19T05:35:51;9.35;;;6.95;;
18023;SDS011;9137;50.960;3.118;2022-08-19T05:38:18;10.65;;;7.55;;
18023;SDS011;9137;50.960;3.118;2022-08-19T05:40:45;12.40;;;7.95;;
18023;SDS011;9137;50.960;3.118;2022-08-19T05:43:14;11.25;;;7.10;;
18023;SDS011;9137;50.960;3.118;2022-08-19T05:45:42;8.15;;;7.18;;
18023;SDS011;9137;50.960;3.118;2022-08-19T05:48:10;11.05;;;6.88;;
18023;SDS011;9137;50.960;3.118;2022-08-19T05:50:37;12.32;;;7.25;;
18023;SDS011;9137;50.960;3.118;2022-08-19T05:53:07;9.35;;;6.40;;
18023;SDS011;9137;50.960;3.118;2022-08-19T05:55:34;9.40;;;6.47;;
18023;SDS011;9137;50.960;3.118;2022-08-19T05:58:03;7.97;;;6.93;;
18023;SDS011;9137;50.960;3.118;2022-08-19T06:00:32;8.18;;;6.22;;
18023;SDS011;9137;50.960;3.118;2022-08-19T06:02:59;9.02;;;6.40;;
18023;SDS011;9137;50.960;3.118;2022-08-19T06:05:28;7.55;;;6.47;;
18023;SDS011;9137;50.960;3.118;2022-08-19T06:07:55;9.00;;;6.90;;
18023;SDS011;9137;50.960;3.118;2022-08-19T06:10:25;7.20;;;6.30;;
18023;SDS011;9137;50.960;3.118;2022-08-19T06:12:52;9.38;;;6.50;;
18023;SDS011;9137;50.960;3.118;2022-08-19T06:15:21;8.18;;;6.13;;
18023;SDS011;9137;50.960;3.118;2022-08-19T06:17:50;9.93;;;6.32;;
18023;SDS011;9137;50.960;3.118;2022-08-19T06:20:17;8.00;;;6.05;;
18023;SDS011;9137;50.960;3.118;2022-08-19T06:22:46;7.63;;;6.43;;
18023;SDS011;9137;50.960;3.118;2022-08-19T06:25:15;9.13;;;6.25;;
18023;SDS011;9137;50.960;3.118;2022-08-19T06:27:44;10.68;;;6.80;;
18023;SDS011;9137;50.960;3.118;2022-08-19T06:30:11;9.77;;;6.25;;
18023;SDS011;9137;50.960;3.118;2022-08-19T06:32:39;7.55;;;5.82;;
18023;SDS011;9137;50.960;3.118;2022-08-19T06:35:06;9.80;;;6.30;;
18023;SDS011;9137;50.960;3.118;2022-08-19T06:37:33;8.90;;;6.45;;
18023;SDS011;9137;50.960;3.118;2022-08-19T06:40:00;8.02;;;6.32;;
18023;SDS011;9137;50.960;3.118;2022-08-19T06:42:27;10.18;;;6.63;;
18023;SDS011;9137;50.960;3.118;2022-08-19T06:44:56;8.05;;;5.68;;
18023;SDS011;9137;50.960;3.118;2022-08-19T06:47:23;7.95;;;5.53;;
18023;SDS011;9137;50.960;3.118;2022-08-19T06:49:52;9.47;;;5.73;;
18023;SDS011;9137;50.960;3.118;2022-08-19T06:52:20;8.55;;;5.78;;
18023;SDS011;9137;50.960;3.118;2022-08-19T06:54:48;10.32;;;6.28;;
18023;SDS011;9137;50.960;3.118;2022-08-19T06:57:15;8.82;;;6.22;;
18023;SDS011;9137;50.960;3.118;2022-08-19T06:59:42;7.50;;;6.15;;
18023;SDS011;9137;50.960;3.118;2022-08-19T07:02:10;9.40;;;5.97;;
18023;SDS011;9137;50.960;3.118;2022-08-19T07:04:37;8.35;;;5.72;;
18023;SDS011;9137;50.960;3.118;2022-08-19T07:07:05;10.52;;;6.25;;
18023;SDS011;9137;50.960;3.118;2022-08-19T07:09:35;9.45;;;6.22;;
18023;SDS011;9137;50.960;3.118;2022-08-19T07:12:03;9.07;;;6.65;;
18023;SDS011;9137;50.960;3.118;2022-08-19T07:14:32;11.45;;;6.45;;
18023;SDS011;9137;50.960;3.118;2022-08-19T07:17:02;7.70;;;6.22;;
18023;SDS011;9137;50.960;3.118;2022-08-19T07:19:32;8.63;;;5.72;;
18023;SDS011;9137;50.960;3.118;2022-08-19T07:22:00;8.38;;;5.35;;
18023;SDS011;9137;50.960;3.118;2022-08-19T07:24:30;7.53;;;5.50;;
18023;SDS011;9137;50.960;3.118;2022-08-19T07:26:58;8.10;;;5.10;;
18023;SDS011;9137;50.960;3.118;2022-08-19T07:29:27;8.07;;;5.17;;
18023;SDS011;9137;50.960;3.118;2022-08-19T07:31:55;7.60;;;5.30;;
18023;SDS011;9137;50.960;3.118;2022-08-19T07:34:24;7.90;;;5.00;;
18023;SDS011;9137;50.960;3.118;2022-08-19T07:36:54;6.25;;;5.00;;
18023;SDS011;9137;50.960;3.118;2022-08-19T07:39:22;6.70;;;4.07;;
18023;SDS011;9137;50.960;3.118;2022-08-19T07:41:50;6.05;;;4.50;;
18023;SDS011;9137;50.960;3.118;2022-08-19T07:44:19;4.88;;;3.75;;
18023;SDS011;9137;50.960;3.118;2022-08-19T07:46:48;6.03;;;3.53;;
18023;SDS011;9137;50.960;3.118;2022-08-19T07:49:16;4.45;;;3.40;;
18023;SDS011;9137;50.960;3.118;2022-08-19T07:51:44;7.28;;;3.80;;
18023;SDS011;9137;50.960;3.118;2022-08-19T07:54:14;5.80;;;3.70;;
18023;SDS011;9137;50.960;3.118;2022-08-19T07:56:41;4.78;;;3.47;;
18023;SDS011;9137;50.960;3.118;2022-08-19T07:59:08;4.68;;;3.47;;
18023;SDS011;9137;50.960;3.118;2022-08-19T08:01:35;4.82;;;3.47;;
18023;SDS011;9137;50.960;3.118;2022-08-19T08:04:04;4.45;;;3.60;;
18023;SDS011;9137;50.960;3.118;2022-08-19T08:06:49;5.65;;;3.60;;
18023;SDS011;9137;50.960;3.118;2022-08-19T08:09:36;8.27;;;4.10;;
18023;SDS011;9137;50.960;3.118;2022-08-19T08:12:06;5.63;;;3.25;;
18023;SDS011;9137;50.960;3.118;2022-08-19T08:14:36;4.15;;;3.15;;
18023;SDS011;9137;50.960;3.118;2022-08-19T08:17:04;3.33;;;3.03;;
18023;SDS011;9137;50.960;3.118;2022-08-19T08:19:32;7.32;;;2.90;;
18023;SDS011;9137;50.960;3.118;2022-08-19T08:22:00;3.38;;;2.70;;
18023;SDS011;9137;50.960;3.118;2022-08-19T08:24:29;4.13;;;2.83;;
18023;SDS011;9137;50.960;3.118;2022-08-19T08:26:58;3.60;;;2.33;;
18023;SDS011;9137;50.960;3.118;2022-08-19T08:29:27;4.30;;;2.63;;
18023;SDS011;9137;50.960;3.118;2022-08-19T08:31:56;2.70;;;2.25;;
18023;SDS011;9137;50.960;3.118;2022-08-19T08:34:23;3.85;;;2.42;;
18023;SDS011;9137;50.960;3.118;2022-08-19T08:36:50;4.57;;;2.25;;
18023;SDS011;9137;50.960;3.118;2022-08-19T08:39:18;7.20;;;2.55;;
18023;SDS011;9137;50.960;3.118;2022-08-19T08:41:49;2.97;;;2.40;;
18023;SDS011;9137;50.960;3.118;2022-08-19T08:44:22;4.00;;;1.93;;
18023;SDS011;9137;50.960;3.118;2022-08-19T08:46:53;1.98;;;1.30;;
18023;SDS011;9137;50.960;3.118;2022-08-19T08:49:26;3.20;;;1.75;;
18023;SDS011;9137;50.960;3.118;2022-08-19T08:51:59;2.33;;;1.00;;
18023;SDS011;9137;50.960;3.118;2022-08-19T08:54:30;2.37;;;0.90;;
18023;SDS011;9137;50.960;3.118;2022-08-19T08:57:02;2.20;;;0.88;;
18023;SDS011;9137;50.960;3.118;2022-08-19T08:59:35;2.40;;;1.10;;
18023;SDS011;9137;50.960;3.118;2022-08-19T09:02:05;4.60;;;1.00;;
18023;SDS011;9137;50.960;3.118;2022-08-19T09:04:33;2.03;;;1.00;;
18023;SDS011;9137;50.960;3.118;2022-08-19T09:07:04;1.10;;;0.82;;
18023;SDS011;9137;50.960;3.118;2022-08-19T09:09:40;3.90;;;1.20;;
18023;SDS011;9137;50.960;3.118;2022-08-19T09:12:13;3.22;;;0.88;;
18023;SDS011;9137;50.960;3.118;2022-08-19T09:14:48;1.48;;;0.77;;
18023;SDS011;9137;50.960;3.118;2022-08-19T09:17:19;1.60;;;1.08;;
18023;SDS011;9137;50.960;3.118;2022-08-19T09:19:53;3.75;;;1.15;;
18023;SDS011;9137;50.960;3.118;2022-08-19T09:22:26;2.60;;;0.95;;
18023;SDS011;9137;50.960;3.118;2022-08-19T09:24:53;1.97;;;0.97;;
18023;SDS011;9137;50.960;3.118;2022-08-19T09:27:21;1.58;;;0.85;;
18023;SDS011;9137;50.960;3.118;2022-08-19T09:29:51;1.75;;;0.93;;
18023;SDS011;9137;50.960;3.118;2022-08-19T09:32:19;2.10;;;0.68;;
18023;SDS011;9137;50.960;3.118;2022-08-19T09:34:46;3.42;;;0.90;;
18023;SDS011;9137;50.960;3.118;2022-08-19T09:37:13;1.70;;;1.13;;
18023;SDS011;9137;50.960;3.118;2022-08-19T09:39:40;3.15;;;1.17;;
18023;SDS011;9137;50.960;3.118;2022-08-19T09:42:07;2.42;;;1.00;;
18023;SDS011;9137;50.960;3.118;2022-08-19T09:44:38;1.40;;;1.27;;
18023;SDS011;9137;50.960;3.118;2022-08-19T09:47:07;2.20;;;1.15;;
18023;SDS011;9137;50.960;3.118;2022-08-19T09:49:36;1.55;;;1.10;;
18023;SDS011;9137;50.960;3.118;2022-08-19T09:52:04;3.10;;;1.07;;
18023;SDS011;9137;50.960;3.118;2022-08-19T09:54:32;1.30;;;0.80;;
18023;SDS011;9137;50.960;3.118;2022-08-19T09:56:59;2.15;;;1.00;;
18023;SDS011;9137;50.960;3.118;2022-08-19T09:59:27;2.45;;;0.70;;
18023;SDS011;9137;50.960;3.118;2022-08-19T10:01:54;1.60;;;0.70;;
18023;SDS011;9137;50.960;3.118;2022-08-19T10:04:23;2.70;;;0.90;;
18023;SDS011;9137;50.960;3.118;2022-08-19T10:07:10;1.40;;;1.17;;
18023;SDS011;9137;50.960;3.118;2022-08-19T10:09:37;1.40;;;0.80;;
18023;SDS011;9137;50.960;3.118;2022-08-19T10:12:06;2.27;;;0.80;;
18023;SDS011;9137;50.960;3.118;2022-08-19T10:14:33;2.08;;;0.70;;
18023;SDS011;9137;50.960;3.118;2022-08-19T10:17:01;1.75;;;0.90;;
18023;SDS011;9137;50.960;3.118;2022-08-19T10:19:30;0.95;;;0.80;;
18023;SDS011;9137;50.960;3.118;2022-08-19T10:22:02;1.50;;;0.70;;
18023;SDS011;9137;50.960;3.118;2022-08-19T10:24:30;1.27;;;0.90;;
18023;SDS011;9137;50.960;3.118;2022-08-19T10:26:58;1.67;;;0.70;;
18023;SDS011;9137;50.960;3.118;2022-08-19T10:29:28;1.10;;;0.70;;
18023;SDS011;9137;50.960;3.118;2022-08-19T10:31:56;1.83;;;0.60;;
18023;SDS011;9137;50.960;3.118;2022-08-19T10:34:25;0.50;;;0.50;;
18023;SDS011;9137;50.960;3.118;2022-08-19T10:36:55;1.63;;;0.60;;
18023;SDS011;9137;50.960;3.118;2022-08-19T10:39:23;1.33;;;0.47;;
18023;SDS011;9137;50.960;3.118;2022-08-19T10:41:50;9.27;;;1.70;;
18023;SDS011;9137;50.960;3.118;2022-08-19T10:44:17;2.22;;;0.70;;
18023;SDS011;9137;50.960;3.118;2022-08-19T10:46:44;1.40;;;0.70;;
18023;SDS011;9137;50.960;3.118;2022-08-19T10:49:12;1.17;;;0.90;;
18023;SDS011;9137;50.960;3.118;2022-08-19T10:51:39;0.82;;;0.50;;
18023;SDS011;9137;50.960;3.118;2022-08-19T10:54:26;1.50;;;0.63;;
18023;SDS011;9137;50.960;3.118;2022-08-19T10:57:20;0.77;;;0.70;;
18023;SDS011;9137;50.960;3.118;2022-08-19T10:59:49;2.45;;;1.00;;
18023;SDS011;9137;50.960;3.118;2022-08-19T11:02:16;1.33;;;0.60;;
18023;SDS011;9137;50.960;3.118;2022-08-19T11:04:42;0.82;;;0.63;;
18023;SDS011;9137;50.960;3.118;2022-08-19T11:07:10;1.40;;;0.80;;
18023;SDS011;9137;50.960;3.118;2022-08-19T11:09:39;1.77;;;0.70;;
18023;SDS011;9137;50.960;3.118;2022-08-19T11:12:08;5.70;;;1.88;;
18023;SDS011;9137;50.960;3.118;2022-08-19T11:14:37;1.55;;;1.30;;
18023;SDS011;9137;50.960;3.118;2022-08-19T11:17:05;2.83;;;1.38;;
18023;SDS011;9137;50.960;3.118;2022-08-19T11:19:33;2.40;;;1.50;;
18023;SDS011;9137;50.960;3.118;2022-08-19T11:22:00;2.05;;;1.40;;
18023;SDS011;9137;50.960;3.118;2022-08-19T11:24:28;2.08;;;1.35;;
18023;SDS011;9137;50.960;3.118;2022-08-19T11:27:01;1.77;;;1.10;;
18023;SDS011;9137;50.960;3.118;2022-08-19T11:29:29;2.53;;;1.30;;
18023;SDS011;9137;50.960;3.118;2022-08-19T11:31:57;4.80;;;1.50;;
18023;SDS011;9137;50.960;3.118;2022-08-19T11:34:27;2.60;;;1.70;;
18023;SDS011;9137;50.960;3.118;2022-08-19T11:36:55;2.88;;;1.60;;
18023;SDS011;9137;50.960;3.118;2022-08-19T11:39:24;2.63;;;0.90;;
18023;SDS011;9137;50.960;3.118;2022-08-19T11:41:53;2.25;;;1.15;;
18023;SDS011;9137;50.960;3.118;2022-08-19T11:44:22;2.55;;;1.40;;
18023;SDS011;9137;50.960;3.118;2022-08-19T11:46:49;3.97;;;1.70;;
18023;SDS011;9137;50.960;3.118;2022-08-19T11:49:17;3.28;;;1.40;;
18023;SDS011;9137;50.960;3.118;2022-08-19T11:51:46;3.72;;;1.10;;
18023;SDS011;9137;50.960;3.118;2022-08-19T11:54:15;2.38;;;1.45;;
18023;SDS011;9137;50.960;3.118;2022-08-19T11:56:43;4.32;;;1.50;;
18023;SDS011;9137;50.960;3.118;2022-08-19T11:59:12;2.67;;;1.67;;
18023;SDS011;9137;50.960;3.118;2022-08-19T12:01:41;4.65;;;1.90;;
18023;SDS011;9137;50.960;3.118;2022-08-19T12:04:08;5.73;;;2.73;;
18023;SDS011;9137;50.960;3.118;2022-08-19T12:06:37;5.77;;;2.63;;
18023;SDS011;9137;50.960;3.118;2022-08-19T12:09:07;5.57;;;2.08;;
18023;SDS011;9137;50.960;3.118;2022-08-19T12:11:35;3.65;;;2.70;;
18023;SDS011;9137;50.960;3.118;2022-08-19T12:14:03;5.65;;;2.45;;
18023;SDS011;9137;50.960;3.118;2022-08-19T12:16:31;4.07;;;2.60;;
18023;SDS011;9137;50.960;3.118;2022-08-19T12:19:00;3.70;;;2.30;;
18023;SDS011;9137;50.960;3.118;2022-08-19T12:21:31;3.22;;;2.00;;
18023;SDS011;9137;50.960;3.118;2022-08-19T12:24:01;3.60;;;2.10;;
18023;SDS011;9137;50.960;3.118;2022-08-19T12:26:29;3.58;;;2.05;;
18023;SDS011;9137;50.960;3.118;2022-08-19T12:28:57;4.00;;;1.25;;
18023;SDS011;9137;50.960;3.118;2022-08-19T12:31:25;2.10;;;1.20;;
18023;SDS011;9137;50.960;3.118;2022-08-19T12:33:53;2.75;;;1.35;;
18023;SDS011;9137;50.960;3.118;2022-08-19T12:36:21;3.90;;;1.85;;
18023;SDS011;9137;50.960;3.118;2022-08-19T12:38:49;3.47;;;1.85;;
18023;SDS011;9137;50.960;3.118;2022-08-19T12:41:17;3.53;;;1.77;;
18023;SDS011;9137;50.960;3.118;2022-08-19T12:43:47;2.70;;;1.90;;
18023;SDS011;9137;50.960;3.118;2022-08-19T12:46:15;2.58;;;1.92;;
18023;SDS011;9137;50.960;3.118;2022-08-19T12:48:43;4.17;;;2.23;;
18023;SDS011;9137;50.960;3.118;2022-08-19T12:51:12;4.75;;;2.45;;
18023;SDS011;9137;50.960;3.118;2022-08-19T12:53:42;3.95;;;2.15;;
18023;SDS011;9137;50.960;3.118;2022-08-19T12:56:10;5.30;;;2.55;;
18023;SDS011;9137;50.960;3.118;2022-08-19T12:58:39;5.07;;;2.85;;
18023;SDS011;9137;50.960;3.118;2022-08-19T13:01:07;3.10;;;2.75;;
18023;SDS011;9137;50.960;3.118;2022-08-19T13:03:36;4.68;;;2.13;;
18023;SDS011;9137;50.960;3.118;2022-08-19T13:06:03;2.90;;;1.73;;
18023;SDS011;9137;50.960;3.118;2022-08-19T13:08:31;2.22;;;1.60;;
18023;SDS011;9137;50.960;3.118;2022-08-19T13:11:07;2.65;;;1.30;;
18023;SDS011;9137;50.960;3.118;2022-08-19T13:13:37;2.92;;;1.40;;
18023;SDS011;9137;50.960;3.118;2022-08-19T13:16:06;2.40;;;1.10;;
18023;SDS011;9137;50.960;3.118;2022-08-19T13:18:34;1.60;;;1.00;;
18023;SDS011;9137;50.960;3.118;2022-08-19T13:21:01;2.13;;;0.85;;
18023;SDS011;9137;50.960;3.118;2022-08-19T13:23:30;4.57;;;1.20;;
18023;SDS011;9137;50.960;3.118;2022-08-19T13:25:57;3.85;;;2.17;;
18023;SDS011;9137;50.960;3.118;2022-08-19T13:28:26;4.80;;;2.13;;
18023;SDS011;9137;50.960;3.118;2022-08-19T13:31:14;3.77;;;2.10;;
18023;SDS011;9137;50.960;3.118;2022-08-19T13:34:00;4.25;;;2.40;;
18023;SDS011;9137;50.960;3.118;2022-08-19T13:36:27;3.43;;;1.43;;
18023;SDS011;9137;50.960;3.118;2022-08-19T13:38:53;3.92;;;1.40;;
18023;SDS011;9137;50.960;3.118;2022-08-19T13:41:21;2.97;;;0.98;;
18023;SDS011;9137;50.960;3.118;2022-08-19T13:43:50;2.47;;;0.93;;
18023;SDS011;9137;50.960;3.118;2022-08-19T13:46:16;1.48;;;1.00;;
18023;SDS011;9137;50.960;3.118;2022-08-19T13:48:44;2.90;;;1.20;;
18023;SDS011;9137;50.960;3.118;2022-08-19T13:51:13;2.45;;;1.10;;
18023;SDS011;9137;50.960;3.118;2022-08-19T13:53:41;2.25;;;0.95;;
18023;SDS011;9137;50.960;3.118;2022-08-19T13:56:10;3.25;;;0.95;;
18023;SDS011;9137;50.960;3.118;2022-08-19T13:58:38;1.65;;;1.17;;
18023;SDS011;9137;50.960;3.118;2022-08-19T14:01:06;2.00;;;0.93;;
18023;SDS011;9137;50.960;3.118;2022-08-19T14:03:34;1.65;;;0.80;;
18023;SDS011;9137;50.960;3.118;2022-08-19T14:06:01;1.92;;;0.88;;
18023;SDS011;9137;50.960;3.118;2022-08-19T14:08:28;1.60;;;0.80;;
18023;SDS011;9137;50.960;3.118;2022-08-19T14:10:57;2.25;;;0.93;;
18023;SDS011;9137;50.960;3.118;2022-08-19T14:13:24;1.45;;;0.80;;
18023;SDS011;9137;50.960;3.118;2022-08-19T14:15:51;2.60;;;1.17;;
18023;SDS011;9137;50.960;3.118;2022-08-19T14:18:19;1.80;;;0.97;;
18023;SDS011;9137;50.960;3.118;2022-08-19T14:20:46;1.30;;;1.05;;
18023;SDS011;9137;50.960;3.118;2022-08-19T14:23:14;2.95;;;0.90;;
18023;SDS011;9137;50.960;3.118;2022-08-19T14:25:41;1.77;;;0.80;;
18023;SDS011;9137;50.960;3.118;2022-08-19T14:28:08;2.25;;;1.00;;
18023;SDS011;9137;50.960;3.118;2022-08-19T14:30:36;1.85;;;1.05;;
18023;SDS011;9137;50.960;3.118;2022-08-19T14:33:04;1.70;;;1.00;;
18023;SDS011;9137;50.960;3.118;2022-08-19T14:35:34;1.92;;;0.95;;
18023;SDS011;9137;50.960;3.118;2022-08-19T14:38:02;2.70;;;0.80;;
18023;SDS011;9137;50.960;3.118;2022-08-19T14:40:30;0.85;;;0.80;;
18023;SDS011;9137;50.960;3.118;2022-08-19T14:42:58;2.33;;;1.00;;
18023;SDS011;9137;50.960;3.118;2022-08-19T14:45:30;1.40;;;0.80;;
18023;SDS011;9137;50.960;3.118;2022-08-19T14:47:57;2.80;;;1.20;;
18023;SDS011;9137;50.960;3.118;2022-08-19T14:50:25;1.90;;;0.90;;
18023;SDS011;9137;50.960;3.118;2022-08-19T14:52:58;3.05;;;1.02;;
18023;SDS011;9137;50.960;3.118;2022-08-19T14:55:26;4.70;;;1.00;;
18023;SDS011;9137;50.960;3.118;2022-08-19T14:57:53;4.30;;;1.05;;
18023;SDS011;9137;50.960;3.118;2022-08-19T15:00:20;1.42;;;1.10;;
18023;SDS011;9137;50.960;3.118;2022-08-19T15:02:48;1.80;;;0.90;;